createdAt,value
2023-05-25T00:00:32.362Z,17.82
2023-05-25T00:03:20.858Z,17.78
2023-05-25T00:06:10.937Z,17.77
2023-05-25T00:08:43.948Z,17.77
2023-05-25T00:11:28.949Z,17.82
2023-05-25T00:14:17.455Z,17.87
2023-05-25T00:17:17.736Z,17.86
2023-05-25T00:20:46.009Z,17.80
2023-05-25T00:24:02.300Z,17.75
2023-05-25T00:27:10.419Z,17.71
2023-05-25T00:29:41.588Z,17.71
2023-05-25T00:32:50.558Z,17.65
2023-05-25T00:35:59.377Z,17.55
2023-05-25T00:38:52.596Z,17.50
2023-05-25T00:41:41.907Z,17.47
2023-05-25T00:44:50.889Z,17.42
2023-05-25T00:48:06.841Z,17.39
2023-05-25T00:51:03.072Z,17.44
2023-05-25T00:53:51.974Z,17.52
2023-05-25T00:56:41.253Z,17.57
2023-05-25T00:59:53.058Z,17.61
2023-05-25T01:03:02.284Z,17.59
2023-05-25T01:06:30.298Z,17.56
2023-05-25T01:09:03.676Z,17.52
2023-05-25T01:11:56.200Z,17.48
2023-05-25T01:14:26.323Z,17.42
2023-05-25T01:17:18.410Z,17.36
2023-05-25T01:20:16.106Z,17.24
2023-05-25T01:23:08.293Z,17.19
2023-05-25T01:25:48.610Z,17.17
2023-05-25T01:28:57.975Z,17.14
2023-05-25T01:31:47.611Z,17.11
2023-05-25T01:34:56.496Z,17.10
2023-05-25T01:37:50.019Z,17.09
2023-05-25T01:40:33.849Z,17.05
2023-05-25T01:43:41.874Z,17.01
2023-05-25T01:46:57.530Z,17.01
2023-05-25T01:50:25.706Z,17.01
2023-05-25T01:53:54.819Z,16.99
2023-05-25T01:56:23.980Z,16.96
2023-05-25T01:59:32.684Z,16.94
2023-05-25T02:02:28.681Z,16.87
2023-05-25T02:05:37.013Z,16.86
2023-05-25T02:08:29.838Z,16.87
2023-05-25T02:11:35.632Z,16.86
2023-05-25T02:15:04.048Z,16.82
2023-05-25T02:17:53.306Z,16.75
2023-05-25T02:21:21.961Z,16.75
2023-05-25T02:24:30.125Z,16.78
2023-05-25T02:27:33.755Z,16.77
2023-05-25T02:30:09.544Z,16.75
2023-05-25T02:32:40.325Z,16.74
2023-05-25T02:36:09.363Z,16.76
2023-05-25T02:39:18.733Z,16.78
2023-05-25T02:42:44.356Z,16.82
2023-05-25T02:46:08.235Z,16.85
2023-05-25T02:48:44.425Z,16.87
2023-05-25T02:51:54.261Z,16.89
2023-05-25T02:54:46.608Z,16.91
2023-05-25T02:58:14.796Z,16.90
2023-05-25T03:01:48.689Z,16.79
2023-05-25T03:04:24.436Z,16.79
2023-05-25T03:07:33.270Z,16.79
2023-05-25T03:10:10.744Z,16.84
2023-05-25T03:13:26.924Z,16.89
2023-05-25T03:16:16.842Z,16.90
2023-05-25T03:19:27.274Z,16.92
2023-05-25T03:21:59.894Z,16.92
2023-05-25T03:24:50.569Z,16.89
2023-05-25T03:27:20.654Z,16.89
2023-05-25T03:30:13.353Z,16.90
2023-05-25T03:32:59.206Z,16.95
2023-05-25T03:35:35.884Z,16.98
2023-05-25T03:38:51.929Z,16.99
2023-05-25T03:42:07.609Z,16.99
2023-05-25T03:44:56.740Z,16.97
2023-05-25T03:48:05.659Z,16.91
2023-05-25T03:51:16.389Z,16.86
2023-05-25T03:54:20.481Z,16.84
2023-05-25T03:57:48.645Z,16.80
2023-05-25T04:00:37.766Z,16.77
2023-05-25T04:04:01.078Z,16.78
2023-05-25T04:06:32.073Z,16.80
2023-05-25T04:09:22.846Z,16.87
2023-05-25T04:12:12.132Z,16.92
2023-05-25T04:15:40.112Z,16.96
2023-05-25T04:18:14.483Z,16.99
2023-05-25T04:21:03.821Z,17.05
2023-05-25T04:24:12.298Z,17.12
2023-05-25T04:27:09.297Z,17.16
2023-05-25T04:30:21.803Z,17.21
2023-05-25T04:33:36.093Z,17.30
2023-05-25T04:36:19.504Z,17.33
2023-05-25T04:38:56.266Z,17.36
2023-05-25T04:42:05.973Z,17.41
2023-05-25T04:45:14.434Z,17.49
2023-05-25T04:48:05.548Z,17.56
2023-05-25T04:50:54.561Z,17.64
2023-05-25T04:54:02.730Z,17.78
2023-05-25T04:56:31.724Z,17.89
2023-05-25T04:59:18.372Z,18.02
2023-05-25T05:01:51.263Z,18.11
2023-05-25T05:04:51.470Z,18.21
2023-05-25T05:08:03.113Z,18.32
2023-05-25T05:10:34.228Z,18.39
2023-05-25T05:13:42.714Z,18.50
2023-05-25T05:16:38.690Z,18.62
2023-05-25T05:19:46.862Z,18.71
2023-05-25T05:22:16.637Z,18.80
2023-05-25T05:24:50.043Z,18.90
2023-05-25T05:27:42.555Z,19.01
2023-05-25T05:30:32.260Z,19.10
2023-05-25T05:33:21.523Z,19.13
2023-05-25T05:35:51.891Z,19.18
2023-05-25T05:38:49.344Z,19.24
2023-05-25T05:41:45.864Z,19.30
2023-05-25T05:44:44.342Z,19.32
2023-05-25T05:47:29.636Z,19.38
2023-05-25T05:50:19.573Z,19.42
2023-05-25T05:53:00.393Z,19.50
2023-05-25T05:55:32.490Z,19.58
2023-05-25T05:58:24.696Z,19.64
2023-05-25T06:01:18.969Z,19.64
2023-05-25T06:04:08.333Z,19.69
2023-05-25T06:06:41.270Z,19.71
2023-05-25T06:09:11.626Z,19.75
2023-05-25T06:12:21.451Z,19.88
2023-05-25T06:15:19.067Z,19.99
2023-05-25T06:17:57.682Z,20.04
2023-05-25T06:20:47.113Z,20.10
2023-05-25T06:23:15.419Z,20.18
2023-05-25T06:26:23.292Z,20.32
2023-05-25T06:29:15.386Z,20.40
2023-05-25T06:31:48.902Z,20.47
2023-05-25T06:34:44.732Z,20.62
2023-05-25T06:37:38.029Z,20.70
2023-05-25T06:41:06.273Z,20.79
2023-05-25T06:44:17.578Z,20.88
2023-05-25T06:47:41.528Z,20.88
2023-05-25T06:51:10.237Z,20.90
2023-05-25T06:54:18.659Z,20.93
2023-05-25T06:57:33.043Z,21.03
2023-05-25T07:00:44.801Z,21.10
2023-05-25T07:03:47.178Z,21.12
2023-05-25T07:07:16.497Z,21.18
2023-05-25T07:10:23.896Z,21.21
2023-05-25T07:13:14.142Z,21.28
2023-05-25T07:16:04.138Z,21.36
2023-05-25T07:18:40.066Z,21.42
2023-05-25T07:21:14.981Z,21.40
2023-05-25T07:23:44.568Z,21.42
2023-05-25T07:26:20.835Z,21.45
2023-05-25T07:29:29.165Z,21.49
2023-05-25T07:31:57.935Z,21.50
2023-05-25T07:35:02.074Z,21.61
2023-05-25T07:37:33.995Z,21.76
2023-05-25T07:40:24.269Z,21.91
2023-05-25T07:43:32.502Z,22.12
2023-05-25T07:46:28.705Z,22.27
2023-05-25T07:49:04.935Z,22.33
2023-05-25T07:51:34.130Z,22.38
2023-05-25T07:54:15.506Z,22.48
2023-05-25T07:57:07.585Z,22.59
2023-05-25T07:59:37.967Z,22.61
2023-05-25T08:02:26.589Z,22.69
2023-05-25T08:05:00.976Z,22.73
2023-05-25T08:07:53.494Z,22.66
2023-05-25T08:10:22.926Z,22.63
2023-05-25T08:13:11.807Z,22.61
2023-05-25T08:16:20.742Z,22.52
2023-05-25T08:19:04.823Z,22.45
2023-05-25T08:22:09.122Z,22.44
2023-05-25T08:24:44.074Z,22.53
2023-05-25T08:27:36.872Z,22.54
2023-05-25T08:30:45.583Z,22.70
2023-05-25T08:33:34.743Z,22.66
2023-05-25T08:36:42.759Z,22.72
2023-05-25T08:39:26.105Z,22.65
2023-05-25T08:41:54.213Z,22.72
2023-05-25T08:44:23.532Z,22.73
2023-05-25T08:46:51.900Z,22.77
2023-05-25T08:49:20.453Z,22.84
2023-05-25T08:51:48.549Z,22.83
2023-05-25T08:54:16.690Z,22.85
2023-05-25T08:56:45.136Z,22.92
2023-05-25T08:59:15.122Z,23.01
2023-05-25T09:01:43.170Z,23.17
2023-05-25T09:04:11.691Z,23.39
2023-05-25T09:06:39.779Z,23.59
2023-05-25T09:09:07.891Z,23.80
2023-05-25T09:11:40.489Z,23.83
2023-05-25T09:14:10.285Z,23.84
2023-05-25T09:16:41.283Z,23.98
2023-05-25T09:19:30.549Z,24.08
2023-05-25T09:22:20.513Z,24.01
2023-05-25T09:24:50.438Z,23.96
2023-05-25T09:27:18.960Z,24.00
2023-05-25T09:29:47.360Z,23.87
2023-05-25T09:32:15.870Z,23.87
2023-05-25T09:34:44.327Z,23.85
2023-05-25T09:37:13.144Z,23.96
2023-05-25T09:39:42.191Z,23.91
2023-05-25T09:42:10.316Z,24.00
2023-05-25T09:44:38.625Z,24.07
2023-05-25T09:47:07.292Z,24.18
2023-05-25T09:49:35.889Z,24.20
2023-05-25T09:52:06.040Z,24.34
2023-05-25T09:54:33.984Z,24.47
2023-05-25T09:57:10.242Z,24.51
2023-05-25T09:59:39.363Z,24.62
2023-05-25T10:02:08.172Z,24.69
2023-05-25T10:04:37.331Z,24.87
2023-05-25T10:07:46.584Z,24.91
2023-05-25T10:10:54.809Z,24.73
2023-05-25T10:14:10.919Z,24.99
2023-05-25T10:17:19.890Z,24.95
2023-05-25T10:20:47.933Z,24.86
2023-05-25T10:23:37.329Z,25.10
2023-05-25T10:27:18.563Z,25.35
2023-05-25T10:30:33.454Z,25.36
2023-05-25T10:33:43.919Z,25.20
2023-05-25T10:37:11.308Z,25.34
2023-05-25T10:40:39.690Z,25.39
2023-05-25T10:44:07.562Z,25.48
2023-05-25T10:47:35.661Z,25.66
2023-05-25T10:51:03.803Z,25.99
2023-05-25T10:54:32.190Z,26.06
2023-05-25T10:58:00.211Z,26.22
2023-05-25T11:01:28.525Z,26.37
2023-05-25T11:04:56.520Z,26.37
2023-05-25T11:08:09.213Z,26.30
2023-05-25T11:11:37.461Z,26.45
2023-05-25T11:15:05.539Z,26.43
2023-05-25T11:18:33.809Z,26.51
2023-05-25T11:22:01.750Z,26.45
2023-05-25T11:25:29.826Z,26.53
2023-05-25T11:28:57.828Z,26.66
2023-05-25T11:31:25.849Z,26.69
2023-05-25T11:33:54.224Z,26.65
2023-05-25T11:36:22.106Z,26.70
2023-05-25T11:39:02.556Z,26.80
2023-05-25T11:41:35.144Z,27.03
2023-05-25T11:44:03.729Z,27.14
2023-05-25T11:46:32.770Z,27.38
2023-05-25T11:49:00.837Z,27.51
2023-05-25T11:51:28.761Z,27.67
2023-05-25T11:53:56.666Z,27.54
2023-05-25T11:56:35.238Z,27.53
2023-05-25T11:59:06.120Z,27.80
2023-05-25T12:01:34.014Z,28.10
2023-05-25T12:04:02.908Z,28.38
2023-05-25T12:06:31.154Z,28.50
2023-05-25T12:08:59.217Z,28.61
2023-05-25T12:11:28.225Z,28.81
2023-05-25T12:13:56.439Z,29.11
2023-05-25T12:16:25.534Z,29.20
2023-05-25T12:18:53.893Z,29.29
2023-05-25T12:21:21.797Z,29.62
2023-05-25T12:23:50.122Z,29.93
2023-05-25T12:26:21.952Z,29.53
2023-05-25T12:28:50.629Z,29.33
2023-05-25T12:31:21.701Z,29.49
2023-05-25T12:33:52.793Z,29.60
2023-05-25T12:36:31.885Z,29.65
2023-05-25T12:39:00.050Z,29.77
2023-05-25T12:41:29.396Z,29.89
2023-05-25T12:43:59.292Z,29.88
2023-05-25T12:46:28.412Z,29.41
2023-05-25T12:48:58.085Z,28.50
2023-05-25T12:51:26.906Z,27.81
2023-05-25T12:54:15.862Z,27.31
2023-05-25T12:57:07.499Z,27.02
2023-05-25T13:00:03.278Z,26.76
2023-05-25T13:02:52.661Z,26.55
2023-05-25T13:05:27.322Z,26.54
2023-05-25T13:07:55.739Z,26.58
2023-05-25T13:10:25.872Z,26.46
2023-05-25T13:12:56.942Z,26.57
2023-05-25T13:15:43.061Z,26.65
2023-05-25T13:18:32.797Z,26.52
2023-05-25T13:21:01.626Z,26.26
2023-05-25T13:23:31.201Z,26.05
2023-05-25T13:26:01.953Z,25.81
2023-05-25T13:28:46.483Z,25.69
2023-05-25T13:31:39.294Z,25.63
2023-05-25T13:34:27.801Z,25.53
2023-05-25T13:36:58.943Z,25.51
2023-05-25T13:39:28.318Z,25.56
2023-05-25T13:42:18.368Z,25.87
2023-05-25T13:44:50.309Z,26.61
2023-05-25T13:47:19.722Z,27.51
2023-05-25T13:49:54.054Z,28.16
2023-05-25T13:52:22.148Z,28.87
2023-05-25T13:55:15.085Z,29.78
2023-05-25T13:58:20.609Z,30.37
2023-05-25T14:00:50.537Z,30.93
2023-05-25T14:03:23.213Z,31.50
2023-05-25T14:06:11.373Z,31.70
2023-05-25T14:08:39.441Z,31.10
2023-05-25T14:11:08.984Z,31.06
2023-05-25T14:13:39.768Z,31.52
2023-05-25T14:16:10.323Z,31.98
2023-05-25T14:18:40.314Z,32.40
2023-05-25T14:21:08.313Z,32.16
2023-05-25T14:23:43.494Z,31.50
2023-05-25T14:26:11.917Z,31.41
2023-05-25T14:28:40.201Z,31.82
2023-05-25T14:31:09.267Z,32.18
2023-05-25T14:33:38.036Z,32.34
2023-05-25T14:36:06.724Z,32.77
2023-05-25T14:38:35.058Z,33.09
2023-05-25T14:41:03.828Z,33.40
2023-05-25T14:43:32.707Z,33.63
2023-05-25T14:46:01.268Z,33.93
2023-05-25T14:48:30.048Z,33.94
2023-05-25T14:51:01.425Z,33.88
2023-05-25T14:53:32.423Z,34.03
2023-05-25T14:56:00.685Z,34.06
2023-05-25T14:58:28.699Z,34.09
2023-05-25T15:00:57.298Z,34.08
2023-05-25T15:03:26.218Z,33.87
2023-05-25T15:06:18.658Z,33.88
2023-05-25T15:08:48.290Z,33.95
2023-05-25T15:11:17.768Z,34.19
2023-05-25T15:13:45.655Z,34.07
2023-05-25T15:16:16.704Z,33.46
2023-05-25T15:18:47.729Z,33.22
2023-05-25T15:21:24.460Z,33.22
2023-05-25T15:23:53.750Z,33.38
2023-05-25T15:26:31.303Z,33.43
2023-05-25T15:29:00.572Z,33.74
2023-05-25T15:31:29.326Z,32.97
2023-05-25T15:34:01.521Z,32.27
2023-05-25T15:36:30.634Z,31.32
2023-05-25T15:39:02.808Z,30.44
2023-05-25T15:41:31.731Z,29.83
2023-05-25T15:44:01.734Z,29.86
2023-05-25T15:46:31.341Z,30.27
2023-05-25T15:49:02.297Z,30.35
2023-05-25T15:51:31.164Z,29.99
2023-05-25T15:54:20.373Z,29.36
2023-05-25T15:56:51.317Z,29.39
2023-05-25T15:59:41.023Z,30.20
2023-05-25T16:02:12.418Z,30.94
2023-05-25T16:04:41.795Z,31.53
2023-05-25T16:07:10.518Z,32.06
2023-05-25T16:09:40.608Z,32.70
2023-05-25T16:12:09.662Z,33.13
2023-05-25T16:14:39.961Z,32.69
2023-05-25T16:17:10.179Z,31.59
2023-05-25T16:20:14.306Z,30.63
2023-05-25T16:22:42.433Z,30.02
2023-05-25T16:25:11.535Z,29.37
2023-05-25T16:27:40.626Z,29.00
2023-05-25T16:30:34.445Z,28.42
2023-05-25T16:33:04.337Z,28.20
2023-05-25T16:35:53.764Z,27.72
2023-05-25T16:38:23.086Z,27.27
2023-05-25T16:41:11.749Z,26.63
2023-05-25T16:43:56.788Z,26.21
2023-05-25T16:46:31.949Z,25.87
2023-05-25T16:49:03.143Z,25.58
2023-05-25T16:51:33.314Z,25.28
2023-05-25T16:54:24.243Z,24.95
2023-05-25T16:57:12.692Z,24.66
2023-05-25T17:00:05.704Z,24.30
2023-05-25T17:03:01.589Z,23.95
2023-05-25T17:05:37.492Z,23.70
2023-05-25T17:08:07.461Z,23.48
2023-05-25T17:10:44.689Z,23.26
2023-05-25T17:13:22.043Z,23.12
2023-05-25T17:15:55.471Z,23.00
2023-05-25T17:18:24.406Z,22.89
2023-05-25T17:21:17.686Z,22.92
2023-05-25T17:24:02.233Z,23.03
2023-05-25T17:27:09.483Z,23.01
2023-05-25T17:30:00.404Z,22.95
2023-05-25T17:32:48.943Z,22.88
2023-05-25T17:35:21.005Z,22.80
2023-05-25T17:37:54.059Z,22.72
2023-05-25T17:40:43.366Z,22.64
2023-05-25T17:43:13.070Z,22.57
2023-05-25T17:45:46.321Z,22.50
2023-05-25T17:48:15.438Z,22.43
2023-05-25T17:50:49.105Z,22.35
2023-05-25T17:53:36.422Z,22.26
2023-05-25T17:56:07.047Z,22.18
2023-05-25T17:58:44.878Z,22.10
2023-05-25T18:01:34.043Z,22.03
2023-05-25T18:04:10.465Z,22.05
2023-05-25T18:07:08.408Z,22.08
2023-05-25T18:09:36.621Z,22.06
2023-05-25T18:12:22.470Z,22.03
2023-05-25T18:15:05.956Z,21.98
2023-05-25T18:17:54.017Z,21.94
2023-05-25T18:20:38.019Z,21.88
2023-05-25T18:23:27.161Z,21.85
2023-05-25T18:25:56.376Z,21.77
2023-05-25T18:28:31.966Z,21.73
2023-05-25T18:31:21.716Z,21.68
2023-05-25T18:33:52.115Z,21.64
2023-05-25T18:36:28.188Z,21.65
2023-05-25T18:39:18.360Z,21.61
2023-05-25T18:41:51.090Z,21.55
2023-05-25T18:44:19.853Z,21.49
2023-05-25T18:46:50.225Z,21.45
2023-05-25T18:49:36.347Z,21.44
2023-05-25T18:52:25.196Z,21.44
2023-05-25T18:54:53.506Z,21.36
2023-05-25T18:57:39.198Z,21.20
2023-05-25T19:00:47.556Z,21.08
2023-05-25T19:03:58.148Z,20.98
2023-05-25T19:06:46.869Z,20.86
2023-05-25T19:09:39.128Z,20.76
2023-05-25T19:12:08.416Z,20.69
2023-05-25T19:14:52.482Z,20.60
2023-05-25T19:17:22.709Z,20.53
2023-05-25T19:20:31.097Z,20.42
2023-05-25T19:23:03.380Z,20.33
2023-05-25T19:25:36.051Z,20.26
2023-05-25T19:28:07.755Z,20.22
2023-05-25T19:30:40.552Z,20.16
2023-05-25T19:33:10.390Z,20.10
2023-05-25T19:36:06.798Z,20.04
2023-05-25T19:39:19.178Z,19.97
2023-05-25T19:41:50.956Z,19.89
2023-05-25T19:44:44.244Z,19.81
2023-05-25T19:47:33.064Z,19.74
2023-05-25T19:50:41.065Z,19.68
2023-05-25T19:53:30.920Z,19.65
2023-05-25T19:56:01.521Z,19.60
2023-05-25T19:58:30.228Z,19.56
2023-05-25T20:01:14.580Z,19.54
2023-05-25T20:04:04.406Z,19.50
2023-05-25T20:06:52.941Z,19.49
2023-05-25T20:10:04.937Z,19.49
2023-05-25T20:12:42.765Z,19.46
2023-05-25T20:16:10.868Z,19.49
2023-05-25T20:19:06.787Z,19.48
2023-05-25T20:22:01.014Z,19.49
2023-05-25T20:24:51.270Z,19.51
2023-05-25T20:28:07.158Z,19.50
2023-05-25T20:30:35.352Z,19.52
2023-05-25T20:33:05.640Z,19.54
2023-05-25T20:35:54.563Z,19.51
2023-05-25T20:38:25.105Z,19.50
2023-05-25T20:40:57.891Z,19.49
2023-05-25T20:44:01.375Z,19.45
2023-05-25T20:46:30.587Z,19.45
2023-05-25T20:49:20.576Z,19.48
2023-05-25T20:52:21.378Z,19.52
2023-05-25T20:55:26.949Z,19.55
2023-05-25T20:58:21.124Z,19.49
2023-05-25T21:00:55.881Z,19.43
2023-05-25T21:03:46.548Z,19.36
2023-05-25T21:06:58.853Z,19.29
2023-05-25T21:09:48.050Z,19.33
2023-05-25T21:13:04.408Z,19.36
2023-05-25T21:15:57.610Z,19.36
2023-05-25T21:18:30.588Z,19.33
2023-05-25T21:20:58.857Z,19.35
2023-05-25T21:23:40.384Z,19.36
2023-05-25T21:26:30.054Z,19.32
2023-05-25T21:29:19.069Z,19.28
2023-05-25T21:32:12.389Z,19.21
2023-05-25T21:34:44.237Z,19.13
2023-05-25T21:37:32.727Z,19.09
2023-05-25T21:40:41.630Z,19.09
2023-05-25T21:44:05.383Z,19.13
2023-05-25T21:47:13.477Z,19.15
2023-05-25T21:50:02.492Z,19.11
2023-05-25T21:52:32.058Z,19.12
2023-05-25T21:56:00.351Z,19.18
2023-05-25T21:58:45.674Z,19.22
2023-05-25T22:01:34.451Z,19.22
2023-05-25T22:04:42.729Z,19.17
2023-05-25T22:07:54.137Z,19.07
2023-05-25T22:10:29.226Z,19.04
2023-05-25T22:13:18.442Z,19.03
2023-05-25T22:16:46.480Z,19.05
2023-05-25T22:20:07.321Z,19.02
2023-05-25T22:22:51.026Z,19.03
2023-05-25T22:25:58.357Z,19.03
2023-05-25T22:28:49.929Z,19.03
2023-05-25T22:31:23.785Z,18.96
2023-05-25T22:34:33.076Z,18.78
2023-05-25T22:37:04.185Z,18.63
2023-05-25T22:39:54.648Z,18.53
2023-05-25T22:43:10.316Z,18.51
2023-05-25T22:46:10.160Z,18.49
2023-05-25T22:48:59.553Z,18.43
2023-05-25T22:51:56.970Z,18.38
2023-05-25T22:55:20.141Z,18.30
2023-05-25T22:58:28.131Z,18.28
2023-05-25T23:01:36.406Z,18.24
2023-05-25T23:04:12.159Z,18.19
2023-05-25T23:07:35.452Z,18.15
2023-05-25T23:10:19.816Z,18.09
2023-05-25T23:13:04.863Z,18.05
2023-05-25T23:15:33.366Z,18.07
2023-05-25T23:18:26.290Z,18.09
2023-05-25T23:21:38.043Z,18.07
2023-05-25T23:24:08.701Z,18.09
2023-05-25T23:27:36.757Z,18.13
2023-05-25T23:30:27.126Z,18.19
2023-05-25T23:33:55.537Z,18.25
2023-05-25T23:36:47.781Z,18.28
2023-05-25T23:39:36.812Z,18.24
2023-05-25T23:42:27.801Z,18.15
2023-05-25T23:45:04.733Z,18.10
2023-05-25T23:47:38.904Z,18.10
2023-05-25T23:50:47.293Z,18.07
2023-05-25T23:53:55.937Z,18.01
2023-05-25T23:56:44.594Z,17.93
2023-05-25T23:59:36.859Z,17.90
